Time;durP1;ratioP1;P1;durP2;ratioP2;P2;SDS_P1;SDS_P2;PMS_P1;PMS_P2;Temp;Humidity;BMP_temperature;BMP_pressure;BME280_temperature;BME280_humidity;BME280_pressure;Samples;Min_cycle;Max_cycle;Signal;HPM_P1;HPM_P2
2021/11/23 00:02:20;;;;;;;3.20;1.10;;;19.70;53.60;;;;;;4765137;30;20201;-80
2021/11/23 00:04:45;;;;;;;3.70;1.30;;;19.60;53.50;;;;;;4764544;30;20239;-80
2021/11/23 00:07:11;;;;;;;3.67;1.13;;;19.60;53.60;;;;;;4778891;30;20243;-79
2021/11/23 00:09:37;;;;;;;2.70;1.10;;;19.60;53.50;;;;;;4779769;30;20176;-79
2021/11/23 00:12:03;;;;;;;2.50;1.15;;;19.60;53.30;;;;;;4764071;30;20670;-80
2021/11/23 00:14:29;;;;;;;6.07;1.13;;;19.60;53.50;;;;;;4764513;30;20168;-80
2021/11/23 00:16:54;;;;;;;8.07;1.10;;;19.60;53.50;;;;;;4765181;30;20194;-80
2021/11/23 00:19:20;;;;;;;3.08;1.10;;;19.60;53.50;;;;;;4764831;30;20196;-80
2021/11/23 00:21:46;;;;;;;5.13;1.10;;;19.60;53.20;;;;;;4780414;30;20214;-80
2021/11/23 00:24:12;;;;;;;4.25;0.90;;;19.60;52.90;;;;;;4779719;30;20175;-80
2021/11/23 00:26:38;;;;;;;3.70;1.05;;;19.60;52.80;;;;;;4780146;30;20152;-80
2021/11/23 00:29:04;;;;;;;3.97;1.30;;;19.60;52.90;;;;;;4768411;30;20192;-80
2021/11/23 00:31:30;;;;;;;5.22;1.30;;;19.60;53.20;;;;;;4768488;30;20161;-80
2021/11/23 00:33:56;;;;;;;4.28;1.13;;;19.70;53.30;;;;;;4767767;30;20237;-80
2021/11/23 00:36:24;;;;;;;5.28;1.15;;;19.70;53.40;;;;;;4783600;30;20176;-80
2021/11/23 00:38:50;;;;;;;3.88;1.00;;;19.60;53.30;;;;;;4782857;30;20251;-80
2021/11/23 00:41:17;;;;;;;2.78;1.17;;;19.60;53.40;;;;;;4782611;30;20224;-80
2021/11/23 00:43:45;;;;;;;4.38;1.08;;;19.60;53.40;;;;;;4767756;30;20171;-80
2021/11/23 00:46:11;;;;;;;3.92;1.05;;;19.60;53.30;;;;;;4767294;30;20168;-80
2021/11/23 00:48:37;;;;;;;2.47;0.98;;;19.60;53.10;;;;;;4767827;30;20690;-80
2021/11/23 00:51:03;;;;;;;2.83;1.00;;;19.60;53.20;;;;;;4767344;30;20207;-80
2021/11/23 00:53:29;;;;;;;2.00;1.00;;;19.60;53.20;;;;;;4767784;30;20539;-80
2021/11/23 00:55:55;;;;;;;1.92;0.90;;;19.60;53.30;;;;;;4784564;30;20168;-80
2021/11/23 00:58:20;;;;;;;4.00;1.30;;;19.60;52.60;;;;;;4767969;30;20236;-80
2021/11/23 01:00:47;;;;;;;2.65;1.05;;;19.60;53.10;;;;;;4781969;30;20200;-80
2021/11/23 01:03:13;;;;;;;3.83;1.45;;;19.60;53.10;;;;;;4782132;30;20179;-80
2021/11/23 01:05:39;;;;;;;6.95;1.00;;;19.60;53.30;;;;;;4767662;30;20232;-80
2021/11/23 01:08:05;;;;;;;4.85;1.15;;;19.50;53.10;;;;;;4752489;30;20242;-80
2021/11/23 01:10:31;;;;;;;4.05;1.10;;;19.60;53.20;;;;;;4766322;30;20184;-80
2021/11/23 01:12:57;;;;;;;2.05;1.00;;;19.60;53.30;;;;;;4766084;30;20187;-80
2021/11/23 01:15:23;;;;;;;2.08;1.10;;;19.60;53.20;;;;;;4781694;30;20215;-80
2021/11/23 01:17:50;;;;;;;4.30;1.00;;;19.60;53.30;;;;;;4766757;30;20203;-80
2021/11/23 01:20:16;;;;;;;4.53;0.88;;;19.60;53.50;;;;;;4781412;30;20207;-79
2021/11/23 01:22:44;;;;;;;4.63;1.23;;;19.50;53.10;;;;;;4782840;30;20243;-80
2021/11/23 01:25:10;;;;;;;3.33;1.00;;;19.60;53.30;;;;;;4767174;30;20176;-80
2021/11/23 01:27:35;;;;;;;4.25;1.23;;;19.60;53.20;;;;;;4767130;30;20233;-80
2021/11/23 01:30:02;;;;;;;3.35;0.90;;;19.60;53.60;;;;;;4766867;30;20222;-80
2021/11/23 01:32:29;;;;;;;2.90;1.00;;;19.60;53.40;;;;;;4782835;30;20165;-80
2021/11/23 01:34:54;;;;;;;3.17;0.88;;;19.60;53.40;;;;;;4781956;30;20153;-80
2021/11/23 01:37:21;;;;;;;2.95;1.20;;;19.50;53.30;;;;;;4783202;30;20220;-80
2021/11/23 01:39:47;;;;;;;2.92;0.82;;;19.50;53.20;;;;;;4782235;30;20215;-80
2021/11/23 01:42:12;;;;;;;1.83;1.02;;;19.60;53.40;;;;;;4781136;30;20164;-80
2021/11/23 01:44:38;;;;;;;3.40;1.00;;;19.50;53.60;;;;;;4781194;30;20176;-80
2021/11/23 01:47:05;;;;;;;3.97;1.00;;;19.50;53.20;;;;;;4765605;30;20176;-80
2021/11/23 01:49:30;;;;;;;2.60;0.90;;;19.50;53.30;;;;;;4780918;30;20640;-80
2021/11/23 01:51:56;;;;;;;3.20;0.85;;;19.50;53.30;;;;;;4781057;30;20172;-80
2021/11/23 01:54:22;;;;;;;3.92;0.82;;;19.60;53.40;;;;;;4766261;30;20188;-80
2021/11/23 01:56:47;;;;;;;2.60;1.27;;;19.50;53.40;;;;;;4767430;30;20180;-79
2021/11/23 01:59:14;;;;;;;3.38;0.98;;;19.50;53.50;;;;;;4765640;30;20329;-80
2021/11/23 02:01:40;;;;;;;3.22;0.95;;;19.50;53.30;;;;;;4751915;30;20184;-80
2021/11/23 02:04:11;;;;;;;2.47;0.93;;;19.50;53.40;;;;;;4765767;30;20180;-79
2021/11/23 02:06:36;;;;;;;4.40;1.40;;;19.50;53.40;;;;;;4766242;30;20263;-79
2021/11/23 02:09:03;;;;;;;5.50;1.10;;;19.50;53.50;;;;;;4782016;30;20168;-80
2021/11/23 02:11:28;;;;;;;5.70;1.00;;;19.50;53.50;;;;;;4782663;30;20218;-80
2021/11/23 02:13:54;;;;;;;3.03;1.10;;;19.50;54.00;;;;;;4781709;30;20198;-79
2021/11/23 02:16:20;;;;;;;4.47;0.90;;;19.50;53.20;;;;;;4780093;30;20160;-80
2021/11/23 02:18:46;;;;;;;2.42;0.93;;;19.50;53.50;;;;;;4765329;30;20168;-79
2021/11/23 02:21:11;;;;;;;5.03;1.05;;;19.50;53.40;;;;;;4780420;30;20208;-80
2021/11/23 02:23:38;;;;;;;2.75;0.98;;;19.50;53.40;;;;;;4782705;30;20161;-80
2021/11/23 02:26:05;;;;;;;3.33;1.15;;;19.50;53.20;;;;;;4765174;30;20204;-80
2021/11/23 02:28:31;;;;;;;2.50;0.95;;;19.50;53.40;;;;;;4782323;30;20168;-80
2021/11/23 02:30:57;;;;;;;5.38;1.30;;;19.50;53.30;;;;;;4782358;30;20168;-79
2021/11/23 02:33:28;;;;;;;4.13;0.93;;;19.50;53.10;;;;;;4779779;30;20184;-80
2021/11/23 02:35:56;;;;;;;2.42;1.00;;;19.50;53.30;;;;;;4780094;30;20160;-80
2021/11/23 02:38:23;;;;;;;3.42;1.00;;;19.60;53.30;;;;;;4765239;30;20303;-79
2021/11/23 02:40:49;;;;;;;4.97;1.20;;;19.40;53.40;;;;;;4781494;30;20204;-80
2021/11/23 02:43:15;;;;;;;2.97;0.90;;;19.50;53.40;;;;;;4780332;30;20249;-79
2021/11/23 02:45:43;;;;;;;3.85;1.08;;;19.50;53.20;;;;;;4779594;30;20160;-80
2021/11/23 02:48:09;;;;;;;2.47;1.10;;;19.50;53.30;;;;;;4764758;30;20183;-80
2021/11/23 02:50:35;;;;;;;3.42;0.93;;;19.50;53.30;;;;;;4763722;30;20180;-80
2021/11/23 02:53:01;;;;;;;3.28;1.05;;;19.50;53.40;;;;;;4765346;30;20251;-80
2021/11/23 02:55:33;;;;;;;4.53;1.25;;;19.50;53.40;;;;;;4766043;30;20195;-80
2021/11/23 02:58:00;;;;;;;3.10;0.98;;;19.50;53.30;;;;;;4782352;30;20561;-80
2021/11/23 03:00:27;;;;;;;2.85;0.93;;;19.50;53.40;;;;;;4765548;30;20283;-80
2021/11/23 03:02:53;;;;;;;3.17;0.80;;;19.50;53.40;;;;;;4779328;30;20251;-80
2021/11/23 03:05:19;;;;;;;1.70;1.00;;;19.50;53.40;;;;;;4764518;30;20274;-80
2021/11/23 03:07:46;;;;;;;4.32;1.02;;;19.50;53.30;;;;;;4780446;30;20184;-79
2021/11/23 03:10:12;;;;;;;2.05;1.00;;;19.50;53.30;;;;;;4763591;30;20203;-80
2021/11/23 03:12:38;;;;;;;3.40;0.80;;;19.50;53.30;;;;;;4765198;30;20184;-79
2021/11/23 03:15:06;;;;;;;3.90;1.13;;;19.40;54.00;;;;;;4765393;30;20165;-80
2021/11/23 03:17:32;;;;;;;2.22;0.98;;;19.50;53.30;;;;;;4765029;30;20221;-80
2021/11/23 03:19:57;;;;;;;3.03;0.98;;;19.50;53.40;;;;;;4779848;30;20260;-79
2021/11/23 03:22:24;;;;;;;3.90;0.82;;;19.50;53.30;;;;;;4764784;30;20176;-80
2021/11/23 03:24:50;;;;;;;2.35;0.80;;;19.40;53.10;;;;;;4765000;30;20220;-79
2021/11/23 03:27:16;;;;;;;3.75;0.90;;;19.40;53.10;;;;;;4765020;30;20180;-80
2021/11/23 03:29:43;;;;;;;2.95;0.93;;;19.50;53.30;;;;;;4779807;30;20235;-80
2021/11/23 03:32:09;;;;;;;4.22;1.02;;;19.50;53.30;;;;;;4765416;30;20247;-80
2021/11/23 03:34:39;;;;;;;3.75;0.90;;;19.40;53.20;;;;;;4764702;30;20156;-80
2021/11/23 03:37:09;;;;;;;2.03;0.80;;;19.40;53.30;;;;;;4779009;30;20193;-80
2021/11/23 03:39:36;;;;;;;2.92;0.80;;;19.40;53.30;;;;;;4764586;30;20212;-80
2021/11/23 03:42:03;;;;;;;1.73;1.00;;;19.40;53.20;;;;;;4764799;30;20191;-80
2021/11/23 03:44:28;;;;;;;5.78;1.00;;;19.40;53.30;;;;;;4765485;30;20160;-80
2021/11/23 03:46:54;;;;;;;3.53;0.82;;;19.50;53.30;;;;;;4764416;30;20169;-80
2021/11/23 03:49:20;;;;;;;4.90;1.17;;;19.40;53.30;;;;;;4765112;30;20317;-80
2021/11/23 03:51:46;;;;;;;3.10;1.00;;;19.40;53.00;;;;;;4764275;30;20171;-80
2021/11/23 03:54:11;;;;;;;4.68;1.27;;;19.50;53.10;;;;;;4765113;30;20161;-80
2021/11/23 03:56:40;;;;;;;2.55;0.80;;;19.40;53.30;;;;;;4764446;30;20180;-79
2021/11/23 03:59:07;;;;;;;3.08;1.13;;;19.40;53.30;;;;;;4779413;30;20198;-80
2021/11/23 04:01:34;;;;;;;2.00;0.88;;;19.40;53.30;;;;;;4764848;30;20339;-80
2021/11/23 04:04:00;;;;;;;2.70;0.95;;;19.40;53.20;;;;;;4782182;30;20190;-80
2021/11/23 04:06:26;;;;;;;2.55;0.60;;;19.40;53.10;;;;;;4784348;30;20322;-79
2021/11/23 04:08:52;;;;;;;4.38;0.88;;;19.50;53.30;;;;;;4782503;30;20163;-80
2021/11/23 04:11:17;;;;;;;3.40;0.90;;;19.40;53.20;;;;;;4781515;30;20183;-80
2021/11/23 04:13:44;;;;;;;2.15;0.80;;;19.50;53.00;;;;;;4766321;30;20187;-80
2021/11/23 04:16:12;;;;;;;3.00;0.90;;;19.40;52.70;;;;;;4766135;30;20168;-81
2021/11/23 04:18:40;;;;;;;3.67;1.08;;;19.50;52.50;;;;;;4781123;30;20161;-80
2021/11/23 04:21:06;;;;;;;2.45;0.80;;;19.40;52.30;;;;;;4781417;30;20204;-80
2021/11/23 04:23:31;;;;;;;2.60;1.00;;;19.50;51.80;;;;;;4781574;30;20220;-79
2021/11/23 04:25:58;;;;;;;2.53;0.82;;;19.50;51.90;;;;;;4765146;30;20180;-79
2021/11/23 04:28:24;;;;;;;3.80;1.00;;;19.50;51.90;;;;;;4765212;30;20184;-79
2021/11/23 04:30:49;;;;;;;2.30;0.90;;;19.50;52.00;;;;;;4782096;30;20163;-80
2021/11/23 04:33:16;;;;;;;2.28;0.90;;;19.40;51.80;;;;;;4781144;30;20164;-79
2021/11/23 04:35:43;;;;;;;3.13;1.10;;;19.50;51.80;;;;;;4764109;30;20181;-80
2021/11/23 04:38:10;;;;;;;3.65;1.05;;;19.50;51.90;;;;;;4779547;30;20157;-79
2021/11/23 04:40:35;;;;;;;3.13;0.95;;;19.50;51.90;;;;;;4779765;30;20703;-80
2021/11/23 04:43:05;;;;;;;3.63;1.17;;;19.50;51.80;;;;;;4765196;30;20184;-80
2021/11/23 04:45:30;;;;;;;2.67;0.70;;;19.50;51.60;;;;;;4779058;30;20200;-80
2021/11/23 04:47:56;;;;;;;2.55;0.80;;;19.50;51.70;;;;;;4765687;30;20172;-81
2021/11/23 04:50:22;;;;;;;2.40;0.80;;;19.50;52.00;;;;;;4779342;30;20172;-80
2021/11/23 04:52:48;;;;;;;2.08;1.02;;;19.50;51.90;;;;;;4764921;30;20168;-80
2021/11/23 04:55:14;;;;;;;2.83;1.00;;;19.50;51.90;;;;;;4781142;30;20169;-80
2021/11/23 04:57:40;;;;;;;2.75;0.90;;;19.50;51.90;;;;;;4780603;30;20192;-80
2021/11/23 05:00:09;;;;;;;2.53;0.70;;;19.50;51.70;;;;;;4764616;30;20215;-80
2021/11/23 05:02:35;;;;;;;2.65;1.00;;;19.60;51.70;;;;;;4764598;30;20176;-80
2021/11/23 05:05:02;;;;;;;2.65;1.15;;;19.60;51.50;;;;;;4779993;30;20173;-80
2021/11/23 05:07:28;;;;;;;2.88;0.95;;;19.60;51.30;;;;;;4779973;30;20282;-80
2021/11/23 05:09:54;;;;;;;1.60;0.80;;;19.60;51.70;;;;;;4764721;30;20176;-80
2021/11/23 05:12:20;;;;;;;1.58;0.70;;;19.60;51.40;;;;;;4778721;30;20156;-80
2021/11/23 05:14:46;;;;;;;2.55;1.02;;;19.70;51.40;;;;;;4763916;30;20160;-80
2021/11/23 05:17:12;;;;;;;3.45;1.30;;;19.70;51.50;;;;;;4778040;30;20636;-80
2021/11/23 05:19:40;;;;;;;1.75;1.05;;;19.60;51.00;;;;;;4764995;30;20542;-81
2021/11/23 05:22:07;;;;;;;2.78;0.80;;;19.70;51.10;;;;;;4780579;30;20156;-81
2021/11/23 05:24:33;;;;;;;1.83;0.73;;;19.70;50.80;;;;;;4778391;30;20235;-81
2021/11/23 05:26:59;;;;;;;1.75;0.77;;;19.70;50.80;;;;;;4779844;30;20192;-81
2021/11/23 05:29:26;;;;;;;2.55;0.90;;;19.70;50.80;;;;;;4779259;30;20171;-81
2021/11/23 05:31:51;;;;;;;3.88;0.82;;;19.70;51.10;;;;;;4778784;30;20651;-81
2021/11/23 05:34:17;;;;;;;1.65;0.75;;;19.80;51.00;;;;;;4778672;30;20231;-81
2021/11/23 05:36:45;;;;;;;2.20;0.70;;;19.70;51.00;;;;;;4763695;30;20169;-81
2021/11/23 05:39:13;;;;;;;2.42;0.70;;;19.70;50.70;;;;;;4762968;30;20172;-81
2021/11/23 05:41:40;;;;;;;1.92;0.90;;;19.70;50.60;;;;;;4763838;30;20183;-81
2021/11/23 05:44:09;;;;;;;2.00;0.77;;;19.70;51.00;;;;;;4762948;30;20176;-81
2021/11/23 05:46:36;;;;;;;1.58;0.88;;;19.70;50.80;;;;;;4778457;30;20639;-81
2021/11/23 05:49:02;;;;;;;3.05;1.00;;;19.80;50.80;;;;;;4762564;30;20703;-81
2021/11/23 05:51:28;;;;;;;1.33;0.88;;;19.80;50.70;;;;;;4778719;30;20172;-81
2021/11/23 05:53:53;;;;;;;1.45;0.80;;;19.80;50.80;;;;;;4778421;30;20160;-81
2021/11/23 05:56:19;;;;;;;1.70;1.10;;;19.80;50.20;;;;;;4779783;30;20247;-81
2021/11/23 05:58:45;;;;;;;3.38;1.02;;;19.80;50.80;;;;;;4763303;30;20176;-81
2021/11/23 06:01:11;;;;;;;1.60;1.00;;;19.80;50.40;;;;;;4780374;30;20203;-81
2021/11/23 06:03:36;;;;;;;2.17;0.95;;;19.80;50.10;;;;;;4780273;30;20161;-81
2021/11/23 06:06:02;;;;;;;1.63;0.65;;;19.80;50.50;;;;;;4764482;30;20649;-81
2021/11/23 06:08:29;;;;;;;1.88;0.70;;;19.70;50.60;;;;;;4763662;30;20251;-81
2021/11/23 06:10:55;;;;;;;2.75;1.00;;;19.70;50.70;;;;;;4780150;30;20173;-81
2021/11/23 06:13:21;;;;;;;3.72;0.90;;;19.80;50.70;;;;;;4766091;30;20169;-81
2021/11/23 06:15:49;;;;;;;2.25;0.95;;;19.70;50.70;;;;;;4778239;30;20168;-81
2021/11/23 06:18:17;;;;;;;2.30;0.60;;;19.80;50.70;;;;;;4776842;30;20157;-81
2021/11/23 06:20:45;;;;;;;1.58;0.80;;;19.80;50.50;;;;;;4780181;30;20278;-81
2021/11/23 06:23:17;;;;;;;1.42;0.80;;;19.80;50.50;;;;;;4782932;30;20172;-81
2021/11/23 06:25:44;;;;;;;1.95;0.82;;;19.80;50.50;;;;;;4780309;30;20580;-81
2021/11/23 06:28:12;;;;;;;3.88;0.90;;;19.80;50.20;;;;;;4766487;30;20617;-81
2021/11/23 06:30:38;;;;;;;3.08;1.00;;;19.80;50.30;;;;;;4779777;30;20156;-81
2021/11/23 06:33:03;;;;;;;1.80;1.00;;;19.70;50.20;;;;;;4776621;30;20505;-81
2021/11/23 06:35:30;;;;;;;1.88;0.80;;;19.80;50.50;;;;;;4775713;30;20506;-81
2021/11/23 06:37:55;;;;;;;1.40;0.80;;;19.80;50.40;;;;;;4777453;30;20606;-81
2021/11/23 06:40:21;;;;;;;3.20;0.90;;;19.80;50.20;;;;;;4780092;30;20207;-81
2021/11/23 06:42:48;;;;;;;1.52;0.90;;;19.80;50.30;;;;;;4779781;30;20168;-81
2021/11/23 06:45:14;;;;;;;2.63;0.90;;;19.80;50.20;;;;;;4778146;30;20176;-81
2021/11/23 06:47:40;;;;;;;1.38;0.80;;;19.80;50.30;;;;;;4776646;30;20171;-81
2021/11/23 06:50:06;;;;;;;1.48;0.93;;;19.80;50.30;;;;;;4776353;30;20192;-81
2021/11/23 06:52:32;;;;;;;2.88;0.93;;;19.80;50.20;;;;;;4778790;30;20171;-81
2021/11/23 06:54:57;;;;;;;1.73;0.80;;;19.80;50.10;;;;;;4764120;30;20266;-81
2021/11/23 06:57:23;;;;;;;0.90;0.75;;;19.80;50.30;;;;;;4761073;30;20232;-81
2021/11/23 06:59:51;;;;;;;3.78;0.80;;;19.70;50.20;;;;;;4762655;30;20188;-81
2021/11/23 07:02:16;;;;;;;1.23;0.80;;;19.70;50.10;;;;;;4761668;30;20160;-81
2021/11/23 07:04:42;;;;;;;3.20;0.90;;;19.80;50.00;;;;;;4777935;30;20660;-81
2021/11/23 07:07:10;;;;;;;2.30;0.93;;;19.80;50.10;;;;;;4761285;30;20228;-80
2021/11/23 07:09:37;;;;;;;1.17;0.77;;;19.80;49.90;;;;;;4762331;30;20643;-80
2021/11/23 07:12:04;;;;;;;1.35;0.80;;;19.80;50.10;;;;;;4777392;30;20164;-80
2021/11/23 07:14:30;;;;;;;1.77;0.80;;;19.80;49.90;;;;;;4777490;30;20644;-80
2021/11/23 07:16:56;;;;;;;2.90;0.73;;;19.80;49.80;;;;;;4761691;30;20220;-80
2021/11/23 07:19:22;;;;;;;1.92;0.80;;;19.80;50.10;;;;;;4777331;30;20203;-80
2021/11/23 07:21:50;;;;;;;1.50;0.70;;;19.80;50.10;;;;;;4761748;30;20168;-80
2021/11/23 07:24:15;;;;;;;1.17;0.70;;;19.80;49.40;;;;;;4761537;30;20244;-80
2021/11/23 07:26:41;;;;;;;1.75;0.80;;;19.80;49.90;;;;;;4777132;30;20228;-81
2021/11/23 07:29:07;;;;;;;1.40;0.60;;;19.80;49.80;;;;;;4760996;30;20175;-80
2021/11/23 07:31:33;;;;;;;1.42;0.70;;;19.80;49.90;;;;;;4760528;30;20707;-80
2021/11/23 07:34:00;;;;;;;1.13;0.73;;;19.80;49.80;;;;;;4747000;30;20548;-80
2021/11/23 07:36:26;;;;;;;1.38;0.70;;;19.80;49.80;;;;;;4760804;30;20247;-80
2021/11/23 07:38:55;;;;;;;3.08;0.63;;;19.80;49.80;;;;;;4746293;30;20357;-80
2021/11/23 07:41:20;;;;;;;1.67;0.88;;;19.80;49.80;;;;;;4761323;30;20203;-80
2021/11/23 07:43:46;;;;;;;1.83;0.75;;;19.80;49.70;;;;;;4776977;30;20305;-80
2021/11/23 07:46:15;;;;;;;1.60;0.77;;;19.90;49.70;;;;;;4760976;30;20267;-79
2021/11/23 07:48:44;;;;;;;1.50;0.63;;;19.80;49.80;;;;;;4766727;30;20599;-80
2021/11/23 07:51:11;;;;;;;1.02;0.60;;;19.80;49.80;;;;;;4767813;30;20153;-80
2021/11/23 07:53:37;;;;;;;1.00;0.73;;;19.80;49.40;;;;;;4788911;30;20164;-80
2021/11/23 07:56:03;;;;;;;2.17;0.90;;;19.80;49.30;;;;;;4778298;30;20240;-79
2021/11/23 07:58:29;;;;;;;1.48;0.63;;;19.80;49.20;;;;;;4781402;30;20635;-80
2021/11/23 08:00:54;;;;;;;1.00;0.52;;;19.80;49.60;;;;;;4781690;30;20256;-80
2021/11/23 08:03:20;;;;;;;1.45;0.90;;;19.90;49.40;;;;;;4781616;30;20250;-80
2021/11/23 08:05:46;;;;;;;2.15;0.70;;;19.80;49.40;;;;;;4797991;30;20226;-80
2021/11/23 08:08:13;;;;;;;1.52;0.80;;;19.80;49.50;;;;;;4797255;30;20174;-79
2021/11/23 08:10:40;;;;;;;0.90;0.60;;;19.80;49.50;;;;;;4782474;30;20562;-80
2021/11/23 08:13:06;;;;;;;0.98;0.60;;;19.80;49.60;;;;;;4797236;30;20205;-80
2021/11/23 08:15:34;;;;;;;1.98;0.80;;;19.90;49.50;;;;;;4781236;30;20179;-80
2021/11/23 08:18:01;;;;;;;1.20;0.80;;;19.90;49.50;;;;;;4781494;30;20187;-80
2021/11/23 08:20:29;;;;;;;1.85;0.80;;;19.80;49.30;;;;;;4798133;30;20218;-80
2021/11/23 08:22:54;;;;;;;0.98;0.60;;;19.80;49.40;;;;;;4766561;30;20183;-80
2021/11/23 08:25:21;;;;;;;0.95;0.70;;;19.80;49.40;;;;;;4796172;30;20168;-80
2021/11/23 08:27:47;;;;;;;1.42;0.70;;;19.80;49.10;;;;;;4797241;30;20159;-79
2021/11/23 08:30:13;;;;;;;1.17;0.70;;;19.80;49.20;;;;;;4780869;30;20179;-80
2021/11/23 08:32:38;;;;;;;1.10;0.70;;;19.80;49.30;;;;;;4781904;30;20164;-79
2021/11/23 08:35:04;;;;;;;2.38;0.90;;;19.90;49.40;;;;;;4782682;30;20186;-80
2021/11/23 08:37:31;;;;;;;1.95;0.80;;;19.90;49.10;;;;;;4782223;30;20176;-80
2021/11/23 08:39:57;;;;;;;0.50;0.40;;;19.90;49.00;;;;;;4797676;30;20655;-80
2021/11/23 08:42:23;;;;;;;1.33;0.80;;;19.90;48.50;;;;;;4780520;30;20176;-80
2021/11/23 08:44:51;;;;;;;1.50;0.90;;;19.90;48.70;;;;;;4765011;30;20183;-79
2021/11/23 08:47:17;;;;;;;2.05;0.85;;;19.90;49.10;;;;;;4780726;29;20168;-80
2021/11/23 08:49:43;;;;;;;2.90;1.00;;;19.90;48.90;;;;;;4783230;30;20549;-80
2021/11/23 08:52:09;;;;;;;2.60;0.70;;;19.90;48.30;;;;;;4785890;30;20199;-80
2021/11/23 08:54:34;;;;;;;1.13;0.80;;;20.00;47.90;;;;;;4770352;30;20172;-80
2021/11/23 08:57:03;;;;;;;0.50;0.50;;;19.90;48.60;;;;;;4783287;30;20167;-80
2021/11/23 08:59:33;;;;;;;2.47;0.80;;;19.90;48.00;;;;;;4769761;30;20270;-80
2021/11/23 09:02:00;;;;;;;2.60;0.73;;;19.90;48.10;;;;;;4784052;30;20164;-80
2021/11/23 09:04:26;;;;;;;1.02;0.60;;;20.00;48.10;;;;;;4783648;30;20183;-80
2021/11/23 09:06:52;;;;;;;6.43;0.85;;;20.00;48.50;;;;;;4784637;30;20585;-80
2021/11/23 09:09:23;;;;;;;10.73;1.23;;;20.00;48.80;;;;;;4800410;30;20290;-80
2021/11/23 09:11:48;;;;;;;7.38;1.10;;;20.00;48.10;;;;;;4784329;30;20201;-80
2021/11/23 09:14:14;;;;;;;4.00;0.90;;;19.90;48.80;;;;;;4785392;30;20186;-79
2021/11/23 09:16:40;;;;;;;2.92;1.05;;;19.90;48.50;;;;;;4785085;30;20163;-80
2021/11/23 09:19:06;;;;;;;6.18;1.10;;;20.00;48.50;;;;;;4784976;30;20164;-79
2021/11/23 09:21:33;;;;;;;3.28;0.90;;;19.90;48.00;;;;;;4800940;30;20204;-79
2021/11/23 09:23:59;;;;;;;6.47;1.02;;;20.00;48.70;;;;;;4769222;30;20249;-80
2021/11/23 09:26:26;;;;;;;1.92;0.90;;;20.00;48.50;;;;;;4798814;30;20619;-80
2021/11/23 09:28:53;;;;;;;4.72;0.90;;;20.00;48.70;;;;;;4783639;30;20520;-80
2021/11/23 09:31:19;;;;;;;3.90;0.75;;;20.00;47.70;;;;;;4768402;30;20651;-80
2021/11/23 09:33:46;;;;;;;4.00;1.00;;;20.10;47.80;;;;;;4799617;30;20310;-80
2021/11/23 09:36:12;;;;;;;2.00;0.80;;;20.00;48.40;;;;;;4784714;30;20640;-79
2021/11/23 09:38:40;;;;;;;2.70;0.90;;;20.10;48.40;;;;;;4800537;30;20162;-80
2021/11/23 09:41:06;;;;;;;1.50;0.70;;;20.00;48.40;;;;;;4768176;30;20204;-80
2021/11/23 09:43:34;;;;;;;4.88;0.90;;;20.00;47.60;;;;;;4768873;30;20164;-80
2021/11/23 09:46:01;;;;;;;1.52;0.68;;;20.00;48.50;;;;;;4768977;30;20171;-79
2021/11/23 09:48:26;;;;;;;2.35;0.73;;;20.00;47.50;;;;;;4783091;30;20171;-80
2021/11/23 09:50:53;;;;;;;1.05;0.63;;;20.00;48.20;;;;;;4784086;30;20179;-79
2021/11/23 09:53:20;;;;;;;2.17;0.75;;;20.00;48.40;;;;;;4784307;30;20171;-80
2021/11/23 09:55:46;;;;;;;2.47;0.88;;;20.00;48.30;;;;;;4784124;30;20640;-80
2021/11/23 09:58:14;;;;;;;1.73;0.70;;;20.00;47.80;;;;;;4784060;30;20250;-80
2021/11/23 10:00:44;;;;;;;3.50;1.00;;;20.00;48.30;;;;;;4768537;30;20329;-79
2021/11/23 10:03:16;;;;;;;1.95;0.70;;;20.00;48.30;;;;;;4799812;30;20168;-80
2021/11/23 10:05:42;;;;;;;3.30;1.23;;;20.00;48.30;;;;;;4785022;30;20223;-80
2021/11/23 10:08:12;;;;;;;3.67;0.90;;;20.00;48.00;;;;;;4797973;30;20170;-80
2021/11/23 10:10:40;;;;;;;2.63;0.80;;;20.00;48.30;;;;;;4799964;30;20198;-80
2021/11/23 10:13:06;;;;;;;3.35;0.80;;;20.10;48.10;;;;;;4784077;30;20208;-80
2021/11/23 10:15:35;;;;;;;1.77;0.70;;;20.00;48.80;;;;;;4782375;30;20167;-80
2021/11/23 10:18:20;;;;;;;1.35;0.73;;;20.10;48.60;;;;;;4783093;30;20195;-80
2021/11/23 10:20:49;;;;;;;5.35;0.93;;;20.00;48.80;;;;;;4769419;30;20199;-81
2021/11/23 10:23:19;;;;;;;2.55;0.70;;;20.00;48.60;;;;;;4783828;30;20179;-79
2021/11/23 10:25:49;;;;;;;3.22;0.80;;;20.10;48.50;;;;;;4798331;30;20251;-79
2021/11/23 10:28:15;;;;;;;4.93;0.82;;;20.00;48.70;;;;;;4782612;30;20168;-80
2021/11/23 10:30:44;;;;;;;2.20;0.80;;;20.00;48.90;;;;;;4799814;30;20167;-80
2021/11/23 10:33:10;;;;;;;3.35;0.73;;;20.00;48.10;;;;;;4783485;30;20167;-79
2021/11/23 10:35:38;;;;;;;1.95;0.70;;;20.00;47.50;;;;;;4783199;30;20159;-79
2021/11/23 10:38:04;;;;;;;1.30;0.98;;;19.90;48.40;;;;;;4782806;30;20566;-80
2021/11/23 10:40:30;;;;;;;1.42;0.60;;;20.00;48.00;;;;;;4783709;30;20562;-79
2021/11/23 10:42:58;;;;;;;2.55;0.90;;;20.10;48.40;;;;;;4783783;30;20171;-80
2021/11/23 10:45:24;;;;;;;1.50;0.80;;;20.10;48.30;;;;;;4783257;30;20206;-80
2021/11/23 10:47:50;;;;;;;2.30;0.80;;;20.00;47.80;;;;;;4799178;30;20185;-80
2021/11/23 10:50:19;;;;;;;3.13;0.77;;;20.10;47.50;;;;;;4798555;30;20164;-80
2021/11/23 10:52:47;;;;;;;2.05;0.50;;;20.10;47.60;;;;;;4784027;30;20224;-80
2021/11/23 10:55:30;;;;;;;1.80;0.85;;;20.00;48.20;;;;;;4798504;30;20291;-80
2021/11/23 10:57:58;;;;;;;4.13;0.98;;;20.10;48.10;;;;;;4782760;30;20230;-79
2021/11/23 11:00:28;;;;;;;6.18;0.70;;;20.00;48.40;;;;;;4781611;30;20203;-79
2021/11/23 11:02:56;;;;;;;0.82;0.50;;;20.00;48.60;;;;;;4797678;30;20171;-79
2021/11/23 11:05:22;;;;;;;1.25;0.68;;;20.00;48.50;;;;;;4782382;29;20166;-79
2021/11/23 11:07:48;;;;;;;4.93;0.70;;;20.00;48.40;;;;;;4797904;30;20171;-79
2021/11/23 11:10:14;;;;;;;1.52;0.75;;;20.00;48.30;;;;;;4782109;29;20175;-80
2021/11/23 11:12:39;;;;;;;4.38;0.50;;;19.90;48.10;;;;;;4797355;30;20255;-79
2021/11/23 11:15:07;;;;;;;1.30;0.60;;;20.00;48.50;;;;;;4798245;30;20175;-79
2021/11/23 11:17:37;;;;;;;2.35;0.70;;;20.00;48.20;;;;;;4768120;30;20561;-79
2021/11/23 11:20:03;;;;;;;1.23;0.80;;;20.00;48.30;;;;;;4781984;30;20266;-80
2021/11/23 11:22:29;;;;;;;1.02;0.60;;;20.00;48.00;;;;;;4780551;30;20170;-79
2021/11/23 11:25:16;;;;;;;1.67;0.70;;;20.00;48.20;;;;;;4780676;30;20218;-80
2021/11/23 11:27:46;;;;;;;2.55;0.68;;;20.00;48.00;;;;;;4771894;30;20275;-80
2021/11/23 11:30:26;;;;;;;2.67;0.85;;;20.00;48.20;;;;;;4767552;30;20167;-80
2021/11/23 11:33:11;;;;;;;2.25;0.80;;;20.00;48.30;;;;;;4780700;30;20546;-79
2021/11/23 11:35:42;;;;;;;2.83;0.85;;;20.00;49.20;;;;;;4780759;30;20164;-79
2021/11/23 11:38:39;;;;;;;1.45;0.80;;;20.00;48.50;;;;;;4782182;30;20187;-79
2021/11/23 11:41:07;;;;;;;0.98;0.73;;;20.10;48.40;;;;;;4770508;30;20278;-79
2021/11/23 11:43:38;;;;;;;2.35;1.00;;;20.00;48.70;;;;;;4798552;30;20168;-80
2021/11/23 11:46:04;;;;;;;2.63;1.00;;;20.00;48.40;;;;;;4798540;30;20196;-79
2021/11/23 11:48:45;;;;;;;4.93;0.82;;;20.00;48.40;;;;;;4799026;30;20190;-79
2021/11/23 11:51:29;;;;;;;1.45;0.70;;;20.00;48.50;;;;;;4768067;30;20251;-80
2021/11/23 11:53:59;;;;;;;3.55;0.85;;;20.00;48.30;;;;;;4798820;30;20193;-79
2021/11/23 11:56:40;;;;;;;1.75;0.73;;;20.00;48.70;;;;;;4784851;30;20183;-79
2021/11/23 11:59:24;;;;;;;2.67;0.90;;;20.10;48.50;;;;;;4786956;30;20171;-80
2021/11/23 12:01:52;;;;;;;2.17;0.70;;;20.00;48.60;;;;;;4785605;30;20176;-80
2021/11/23 12:04:20;;;;;;;0.93;0.63;;;20.00;48.40;;;;;;4801829;30;20176;-80
2021/11/23 12:07:03;;;;;;;2.88;0.57;;;20.00;48.40;;;;;;4784940;30;20231;-80
2021/11/23 12:09:44;;;;;;;1.75;0.57;;;20.00;48.30;;;;;;4785939;30;20232;-80
2021/11/23 12:12:28;;;;;;;1.08;0.68;;;20.10;48.30;;;;;;4802316;30;20159;-79
2021/11/23 12:15:09;;;;;;;0.55;0.55;;;20.00;48.90;;;;;;4785630;30;20183;-80
2021/11/23 12:18:02;;;;;;;2.08;0.77;;;20.00;48.50;;;;;;4785434;30;20186;-79
2021/11/23 12:21:09;;;;;;;2.78;0.60;;;20.00;48.50;;;;;;4785457;30;20211;-80
2021/11/23 12:23:55;;;;;;;1.25;0.88;;;20.00;48.30;;;;;;4791664;30;20167;-80
2021/11/23 12:26:36;;;;;;;2.70;0.80;;;20.00;48.50;;;;;;4806104;30;20193;-80
2021/11/23 12:29:05;;;;;;;1.33;0.70;;;20.00;48.80;;;;;;4789890;30;20200;-80
2021/11/23 12:31:33;;;;;;;1.17;0.75;;;19.90;48.90;;;;;;4807407;30;20639;-80
2021/11/23 12:34:02;;;;;;;1.55;0.85;;;19.90;48.60;;;;;;4805802;30;20159;-79
2021/11/23 12:36:30;;;;;;;0.90;0.60;;;19.90;48.30;;;;;;4805729;30;20168;-80
2021/11/23 12:39:11;;;;;;;2.88;1.10;;;20.00;48.50;;;;;;4805786;30;20187;-80
2021/11/23 12:41:37;;;;;;;2.50;0.82;;;20.00;48.50;;;;;;4787599;30;20202;-79
2021/11/23 12:44:03;;;;;;;1.05;0.70;;;20.00;48.50;;;;;;4800314;30;20179;-80
2021/11/23 12:46:29;;;;;;;1.25;0.73;;;20.00;48.70;;;;;;4796573;30;20241;-80
2021/11/23 12:48:56;;;;;;;1.58;0.75;;;20.00;48.70;;;;;;4779221;30;20171;-79
2021/11/23 12:51:26;;;;;;;2.10;0.77;;;19.90;48.60;;;;;;4777935;30;20174;-80